Download Report Download Report to Microsoft Excel
Date Pool Outflow Precip Tailwater Gate 1 Gate 2 Gate 3 Gate 4 Gate 5 Gate 6 Gate 7 Gate 8 Comments Edit
05/30/2024 07:00 am 307.21 1560 0.00 0.00 10.0 10.0 10.0 10.0 10.0 10.0 10.0 10.0 - Edit
05/29/2024 07:00 am 308.80 3441   0.00 10.0 10.0 10.0 10.0 10.0 10.0 10.0 10.0 TRACE PRECIP/MANUAL TILE Edit
05/28/2024 07:00 am 306.94 1651 0.88 0.00 10.0 10.0 10.0 10.0 10.0 10.0 10.0 10.0 - Edit
05/27/2024 07:00 am 306.75 1146 0.05 0.00 10.0 10.0 10.0 10.0 10.0 10.0 10.0 10.0 3-DAY PRECIP TOTAL Edit
05/26/2024 07:00 am 306.68 1156   0.00 10.0 10.0 10.0 10.0 10.0 10.0 10.0 10.0 SEE 3-DAY PRECIP TOTAL Edit
05/25/2024 07:00 am 306.66 1183   0.00 10.0 10.0 10.0 10.0 10.0 10.0 10.0 10.0 SEE 3-DAY PRECIP TOTAL Edit
05/24/2024 07:00 am 306.69 1327 0.00 0.00 10.0 10.0 10.0 10.0 10.0 10.0 10.0 10.0 - Edit
05/23/2024 07:00 am 306.86 1387 0.00 0.00 10.0 10.0 10.0 10.0 10.0 10.0 10.0 10.0 - Edit
05/22/2024 07:00 am 306.70 1406 0.10 0.00 10.0 10.0 10.0 10.0 10.0 10.0 10.0 10.0 MANUAL TILE GAUGE READING Edit
05/21/2024 07:00 am 306.83 1545 0.00 0.00 10.0 10.0 10.0 10.0 10.0 10.0 10.0 10.0 - Edit
05/20/2024 07:00 am 306.95 1589   0.00 10.0 10.0 10.0 10.0 10.0 10.0 10.0 10.0 3-DAY PRECIP TOTAL-TRACE Edit
05/19/2024 07:00 am 306.85 1636   0.00 10.0 10.0 10.0 10.0 10.0 10.0 10.0 10.0 SEE 3-DAY PRECIP TOTAL Edit
05/18/2024 07:00 am 307.05 1933   0.00 10.0 10.0 10.0 10.0 10.0 10.0 10.0 10.0 SEE 3-DAY PRECIP TOTAL Edit
05/17/2024 07:00 am 307.16 2118 0.00 0.00 10.0 10.0 10.0 10.0 10.0 10.0 10.0 10.0 TRACE Edit
05/16/2024 07:00 am 307.26 2234 0.01 0.00 10.0 10.0 10.0 10.0 10.0 10.0 10.0 10.0 - Edit
05/15/2024 07:00 am 307.27 2268 0.00 0.00 10.0 10.0 10.0 10.0 10.0 10.0 10.0 10.0 - Edit
05/14/2024 07:00 am 307.19 2233 0.04 0.00 10.0 10.0 10.0 10.0 10.0 10.0 10.0 10.0 - Edit
05/13/2024 07:00 am 307.30 2234 0.00 0.00 10.0 10.0 10.0 10.0 10.0 10.0 10.0 10.0 - Edit
05/12/2024 07:00 am 307.63 2596 0.00 0.00 10.0 10.0 10.0 10.0 10.0 10.0 10.0 10.0 - Edit
05/11/2024 07:00 am 308.13 3123   0.00 10.0 10.0 10.0 10.0 10.0 10.0 10.0 10.0 TRACE PRECIP Edit
05/10/2024 07:00 am 309.12 3646 0.02 0.00 10.0 10.0 10.0 10.0 10.0 10.0 10.0 10.0 - Edit
05/09/2024 07:00 am 309.34 3758 0.21 0.00 10.0 10.0 10.0 10.0 10.0 10.0 10.0 10.0 - Edit
05/08/2024 07:00 am 310.30 4262 0.00 0.00 10.0 10.0 10.0 10.0 10.0 10.0 10.0 10.0 MANUAL TILE GAUGE READING Edit
05/07/2024 07:00 am 312.22 5207 0.00 0.00 10.0 10.0 10.0 10.0 10.0 10.0 10.0 10.0 - Edit
05/06/2024 07:00 am 309.51 3916 0.74 0.00 10.0 10.0 10.0 10.0 10.0 10.0 10.0 10.0 3-DAY RAIN TOTAL Edit
05/05/2024 07:00 am 307.83 2584   0.00 10.0 10.0 10.0 10.0 10.0 10.0 10.0 10.0 SEE 3-DAY TOTAL Edit
05/04/2024 07:00 am 308.61 3304   0.00 10.0 10.0 10.0 10.0 10.0 10.0 10.0 10.0 SEE 3-DAY TOTAL Edit
05/03/2024 07:00 am 308.35 3125 0.04 0.00 10.0 10.0 10.0 10.0 10.0 10.0 10.0 10.0 - Edit
05/02/2024 07:00 am 308.77 3146   0.00 10.0 10.0 10.0 10.0 10.0 10.0 10.0 10.0 TRACE PRECIP Edit
05/01/2024 07:00 am 309.17 3594 1.04 0.00 10.0 10.0 10.0 10.0 10.0 10.0 10.0 10.0 - Edit
04/30/2024 07:00 am 309.92 3736 0.02 0.00 10.0 10.0 10.0 10.0 10.0 10.0 10.0 10.0 - Edit
04/29/2024 07:00 am 307.54 2653 0.08 0.00 10.0 10.0 10.0 10.0 10.0 10.0 10.0 10.0 - Edit
Report Generated on 25-JUN-2024 06:33:25